createdAt,value
2023-02-06T00:04:21.871Z,54.47
2023-02-06T00:09:25.517Z,54.06
2023-02-06T00:14:30.347Z,54.22
2023-02-06T00:19:33.536Z,54.04
2023-02-06T00:24:36.985Z,54.36
2023-02-06T00:29:42.026Z,54.90
2023-02-06T00:34:45.598Z,54.49
2023-02-06T00:39:49.339Z,54.30
2023-02-06T00:44:54.261Z,54.72
2023-02-06T00:49:57.946Z,55.04
2023-02-06T00:55:01.433Z,54.66
2023-02-06T01:00:08.314Z,54.94
2023-02-06T01:05:12.163Z,55.13
2023-02-06T01:10:16.267Z,55.01
2023-02-06T01:15:21.118Z,55.09
2023-02-06T01:20:24.925Z,55.35
2023-02-06T01:25:28.379Z,55.08
2023-02-06T01:30:33.561Z,55.56
2023-02-06T01:35:37.393Z,55.31
2023-02-06T01:40:41.184Z,55.09
2023-02-06T01:45:47.726Z,55.59
2023-02-06T01:50:55.016Z,55.44
2023-02-06T01:56:02.450Z,56.05
2023-02-06T02:01:08.977Z,55.17
2023-02-06T02:06:15.455Z,55.29
2023-02-06T02:11:25.022Z,55.29
2023-02-06T02:16:42.155Z,55.56
2023-02-06T02:22:23.117Z,55.14
2023-02-06T02:28:00.490Z,54.86
2023-02-06T02:33:36.444Z,54.86
2023-02-06T02:38:53.610Z,54.60
2023-02-06T02:44:03.177Z,55.03
2023-02-06T02:49:12.782Z,54.97
2023-02-06T02:54:17.704Z,54.67
2023-02-06T02:59:25.717Z,54.47
2023-02-06T03:04:36.377Z,54.20
2023-02-06T03:09:59.156Z,54.37
2023-02-06T03:15:09.127Z,54.37
2023-02-06T03:20:14.003Z,54.47
2023-02-06T03:25:25.204Z,54.31
2023-02-06T03:30:31.512Z,54.43
2023-02-06T03:35:38.460Z,54.23
2023-02-06T03:40:48.825Z,54.30
2023-02-06T03:45:55.847Z,54.29
2023-02-06T03:51:04.302Z,54.13
2023-02-06T03:56:14.502Z,55.04
2023-02-06T04:01:19.128Z,54.85
2023-02-06T04:06:22.994Z,54.68
2023-02-06T04:11:28.012Z,54.61
2023-02-06T04:16:31.628Z,54.55
2023-02-06T04:21:35.272Z,54.56
2023-02-06T04:26:40.375Z,54.26
2023-02-06T04:31:44.293Z,54.19
2023-02-06T04:36:47.933Z,54.31
2023-02-06T04:41:53.486Z,54.58
2023-02-06T04:46:57.139Z,54.28
2023-02-06T04:52:00.746Z,54.51
2023-02-06T04:57:05.782Z,54.22
2023-02-06T05:02:09.403Z,54.37
2023-02-06T05:07:13.047Z,54.71
2023-02-06T05:12:18.125Z,54.18
2023-02-06T05:17:21.774Z,54.16
2023-02-06T05:22:25.396Z,54.64
2023-02-06T05:27:30.477Z,55.03
2023-02-06T05:32:33.847Z,55.33
2023-02-06T05:37:38.980Z,55.13
2023-02-06T05:42:43.792Z,54.83
2023-02-06T05:47:47.590Z,54.86
2023-02-06T05:52:50.983Z,54.98
2023-02-06T05:57:55.974Z,54.98
2023-02-06T06:02:59.390Z,54.92
2023-02-06T06:08:03.082Z,54.70
2023-02-06T06:13:08.470Z,54.51
2023-02-06T06:18:12.385Z,54.55
2023-02-06T06:23:15.878Z,54.42
2023-02-06T06:28:20.963Z,54.44
2023-02-06T06:33:24.507Z,53.82
2023-02-06T06:38:28.471Z,54.92
2023-02-06T06:43:33.745Z,54.66
2023-02-06T06:48:38.611Z,54.60
2023-02-06T06:53:42.133Z,55.07
2023-02-06T06:58:47.201Z,55.39
2023-02-06T07:03:50.668Z,54.53
2023-02-06T07:08:54.773Z,54.69
2023-02-06T07:13:59.721Z,54.38
2023-02-06T07:19:03.340Z,53.78
2023-02-06T07:24:07.330Z,53.62
2023-02-06T07:29:12.383Z,53.60
2023-02-06T07:34:16.913Z,53.44
2023-02-06T07:39:20.670Z,53.32
2023-02-06T07:44:25.643Z,53.06
2023-02-06T07:49:29.273Z,53.43
2023-02-06T07:54:33.213Z,53.72
2023-02-06T07:59:38.250Z,53.23
2023-02-06T08:04:41.862Z,52.67
2023-02-06T08:09:45.636Z,52.26
2023-02-06T08:14:50.545Z,51.98
2023-02-06T08:19:54.000Z,51.36
2023-02-06T08:24:57.496Z,51.21
2023-02-06T08:30:02.396Z,50.56
2023-02-06T08:35:08.137Z,50.47
2023-02-06T08:40:12.815Z,50.51
2023-02-06T08:45:17.847Z,50.71
2023-02-06T08:50:21.464Z,50.58
2023-02-06T08:55:25.184Z,50.12
2023-02-06T09:00:30.473Z,49.89
2023-02-06T09:05:34.924Z,49.69
2023-02-06T09:10:38.695Z,49.41
2023-02-06T09:15:43.620Z,49.04
2023-02-06T09:20:49.889Z,49.02
2023-02-06T09:25:53.263Z,48.90
2023-02-06T09:30:58.542Z,49.30
2023-02-06T09:36:07.137Z,48.83
2023-02-06T09:41:18.554Z,48.88
2023-02-06T09:46:28.625Z,48.97
2023-02-06T09:51:44.210Z,49.38
2023-02-06T09:56:55.620Z,50.13
2023-02-06T10:02:15.746Z,50.41
2023-02-06T10:07:34.414Z,50.64
2023-02-06T10:12:42.827Z,50.00
2023-02-06T10:17:53.986Z,49.31
2023-02-06T10:23:10.063Z,49.45
2023-02-06T10:28:23.223Z,49.09
2023-02-06T10:33:36.346Z,48.62
2023-02-06T10:38:58.640Z,48.42
2023-02-06T10:44:09.916Z,48.58
2023-02-06T10:49:22.738Z,47.69
2023-02-06T10:54:31.490Z,48.16
2023-02-06T10:59:40.832Z,48.45
2023-02-06T11:04:51.892Z,48.10
2023-02-06T11:09:55.578Z,48.15
2023-02-06T11:15:05.022Z,47.84
2023-02-06T11:20:22.104Z,47.98
2023-02-06T11:25:31.708Z,48.46
2023-02-06T11:30:38.797Z,48.08
2023-02-06T11:35:55.021Z,48.23
2023-02-06T11:41:02.381Z,48.85
2023-02-06T11:46:17.091Z,48.60
2023-02-06T11:51:25.623Z,48.78
2023-02-06T11:56:30.691Z,48.56
2023-02-06T12:01:43.386Z,48.39
2023-02-06T12:06:48.514Z,48.45
2023-02-06T12:11:59.126Z,48.09
2023-02-06T12:17:05.073Z,47.93
2023-02-06T12:22:17.824Z,47.84
2023-02-06T12:27:24.567Z,47.94
2023-02-06T12:32:33.275Z,47.99
2023-02-06T12:37:44.330Z,48.34
2023-02-06T12:42:51.674Z,48.73
2023-02-06T12:47:59.483Z,48.38
2023-02-06T12:53:07.939Z,48.41
2023-02-06T12:58:28.504Z,47.73
2023-02-06T13:03:36.897Z,48.26
2023-02-06T13:08:46.618Z,48.11
2023-02-06T13:13:51.017Z,47.97
2023-02-06T13:18:55.333Z,48.50
2023-02-06T13:24:17.172Z,48.40
2023-02-06T13:29:26.863Z,48.83
2023-02-06T13:34:30.523Z,48.51
2023-02-06T13:39:35.650Z,48.66
2023-02-06T13:44:40.775Z,48.71
2023-02-06T13:50:22.623Z,49.22
2023-02-06T13:55:39.361Z,48.91
2023-02-06T14:00:48.258Z,49.33
2023-02-06T14:06:01.286Z,49.08
2023-02-06T14:11:30.754Z,49.30
2023-02-06T14:16:46.159Z,49.21
2023-02-06T14:21:58.999Z,49.38
2023-02-06T14:27:18.713Z,48.77
2023-02-06T14:32:48.039Z,48.41
2023-02-06T14:38:09.550Z,48.44
2023-02-06T14:43:19.187Z,48.78
2023-02-06T14:48:27.896Z,48.71
2023-02-06T14:53:33.960Z,48.87
2023-02-06T14:58:38.988Z,49.21
2023-02-06T15:03:42.997Z,50.09
2023-02-06T15:08:50.422Z,49.07
2023-02-06T15:13:57.599Z,49.70
2023-02-06T15:19:14.662Z,49.78
2023-02-06T15:24:40.126Z,49.75
2023-02-06T15:29:49.910Z,49.74
2023-02-06T15:34:53.508Z,49.60
2023-02-06T15:39:58.674Z,49.52
2023-02-06T15:45:03.845Z,49.30
2023-02-06T15:50:12.507Z,49.44
2023-02-06T15:55:27.883Z,50.32
2023-02-06T16:00:36.731Z,50.44
2023-02-06T16:05:43.724Z,50.30
2023-02-06T16:10:52.228Z,50.22
2023-02-06T16:16:06.847Z,50.34
2023-02-06T16:21:21.641Z,49.94
2023-02-06T16:26:27.904Z,50.00
2023-02-06T16:31:36.142Z,50.34
2023-02-06T16:36:39.891Z,50.05
2023-02-06T16:41:43.704Z,50.18
2023-02-06T16:46:48.760Z,51.00
2023-02-06T16:51:55.128Z,50.21
2023-02-06T16:57:07.724Z,50.57
2023-02-06T17:02:15.092Z,50.20
2023-02-06T17:07:21.162Z,49.94
2023-02-06T17:12:24.836Z,50.40
2023-02-06T17:17:29.922Z,49.87
2023-02-06T17:22:33.309Z,50.08
2023-02-06T17:27:36.965Z,50.75
2023-02-06T17:32:41.765Z,50.55
2023-02-06T17:37:45.175Z,50.02
2023-02-06T17:42:49.238Z,50.12
2023-02-06T17:47:54.932Z,50.16
2023-02-06T17:52:59.730Z,49.70
2023-02-06T17:58:03.215Z,50.19
2023-02-06T18:03:08.063Z,49.83
2023-02-06T18:08:12.333Z,50.48
2023-02-06T18:13:15.728Z,50.58
2023-02-06T18:18:22.056Z,50.56
2023-02-06T18:23:25.741Z,51.01
2023-02-06T18:28:32.233Z,50.79
2023-02-06T18:33:37.413Z,51.81
2023-02-06T18:38:41.055Z,51.14
2023-02-06T18:43:44.593Z,51.18
2023-02-06T18:48:49.663Z,50.79
2023-02-06T18:53:53.369Z,51.07
2023-02-06T18:58:57.073Z,51.57
2023-02-06T19:04:02.013Z,50.82
2023-02-06T19:09:08.106Z,51.08
2023-02-06T19:14:15.565Z,51.62
2023-02-06T19:19:20.694Z,51.81
2023-02-06T19:24:26.469Z,51.23
2023-02-06T19:29:36.124Z,51.13
2023-02-06T19:34:44.327Z,51.43
2023-02-06T19:39:48.152Z,50.92
2023-02-06T19:44:54.668Z,52.01
2023-02-06T19:49:59.715Z,51.78
2023-02-06T19:55:03.255Z,52.08
2023-02-06T20:00:07.888Z,51.91
2023-02-06T20:05:12.789Z,52.14
2023-02-06T20:10:16.561Z,51.85
2023-02-06T20:15:20.153Z,51.86
2023-02-06T20:20:25.248Z,52.62
2023-02-06T20:25:28.938Z,52.97
2023-02-06T20:30:33.251Z,52.74
2023-02-06T20:35:42.658Z,52.45
2023-02-06T20:40:51.792Z,52.51
2023-02-06T20:45:55.355Z,53.13
2023-02-06T20:51:01.099Z,52.84
2023-02-06T20:56:04.803Z,53.14
2023-02-06T21:01:14.686Z,52.46
2023-02-06T21:06:21.291Z,52.55
2023-02-06T21:11:29.466Z,52.48
2023-02-06T21:16:34.061Z,52.03
2023-02-06T21:21:39.840Z,51.87
2023-02-06T21:26:43.879Z,51.56
2023-02-06T21:31:47.587Z,51.93
2023-02-06T21:36:53.763Z,52.41
2023-02-06T21:41:57.767Z,52.14
2023-02-06T21:47:01.762Z,52.29
2023-02-06T21:52:06.960Z,52.49
2023-02-06T21:57:10.559Z,52.59
2023-02-06T22:02:14.268Z,51.59
2023-02-06T22:07:20.162Z,51.55
2023-02-06T22:12:23.780Z,51.92
2023-02-06T22:17:27.709Z,52.39
2023-02-06T22:22:32.561Z,52.27
2023-02-06T22:27:36.527Z,52.18
2023-02-06T22:32:40.831Z,52.44
2023-02-06T22:37:47.486Z,52.57
2023-02-06T22:42:50.866Z,52.32
2023-02-06T22:47:54.747Z,52.41
2023-02-06T22:53:16.781Z,51.83
2023-02-06T22:58:20.423Z,52.77
2023-02-06T23:03:24.028Z,52.52
2023-02-06T23:08:29.211Z,52.53
2023-02-06T23:13:33.213Z,52.63
2023-02-06T23:18:37.398Z,52.21
2023-02-06T23:23:42.866Z,52.37
2023-02-06T23:28:46.725Z,52.90
2023-02-06T23:33:50.162Z,53.22
2023-02-06T23:38:55.474Z,53.67
2023-02-06T23:44:01.657Z,52.77
2023-02-06T23:49:05.738Z,53.62
2023-02-06T23:54:10.704Z,53.39
2023-02-06T23:59:14.389Z,54.11
